createdAt,value
2023-11-24T00:01:10.300Z,2.63
2023-11-24T00:06:40.004Z,3.23
2023-11-24T00:12:34.056Z,3.27
2023-11-24T00:15:18.761Z,2.93
2023-11-24T00:18:06.747Z,2.97
2023-11-24T00:20:35.988Z,3.27
2023-11-24T00:23:11.151Z,3.10
2023-11-24T00:25:39.700Z,3.40
2023-11-24T00:28:13.706Z,3.30
2023-11-24T00:30:43.340Z,2.80
2023-11-24T00:33:33.206Z,3.70
2023-11-24T00:36:18.764Z,3.13
2023-11-24T00:39:06.144Z,3.37
2023-11-24T00:41:50.842Z,3.53
2023-11-24T00:44:19.707Z,3.00
2023-11-24T00:47:08.235Z,3.43
2023-11-24T00:49:40.248Z,3.17
2023-11-24T00:52:16.605Z,3.30
2023-11-24T00:54:55.278Z,2.70
2023-11-24T00:57:27.976Z,3.53
2023-11-24T01:00:05.414Z,3.90
2023-11-24T01:02:45.948Z,2.80
2023-11-24T01:05:18.448Z,3.20
2023-11-24T01:08:10.882Z,3.30
2023-11-24T01:10:47.442Z,3.60
2023-11-24T01:13:30.171Z,3.03
2023-11-24T01:16:04.246Z,3.60
2023-11-24T01:18:42.936Z,2.93
2023-11-24T01:21:17.672Z,3.00
2023-11-24T01:23:59.927Z,4.07
2023-11-24T01:26:44.151Z,3.20
2023-11-24T01:34:56.267Z,3.50
2023-11-24T01:37:24.645Z,3.50
2023-11-24T01:39:54.682Z,5.20
2023-11-24T01:42:27.771Z,3.40
2023-11-24T01:47:40.849Z,3.73
2023-11-24T01:50:11.092Z,2.27
2023-11-24T01:52:42.160Z,2.27
2023-11-24T01:55:16.149Z,2.57
2023-11-24T02:00:48.689Z,2.40
2023-11-24T02:03:38.172Z,2.07
2023-11-24T02:06:10.198Z,2.50
2023-11-24T02:25:23.494Z,2.03
2023-11-24T02:28:30.194Z,2.43
2023-11-24T03:40:51.666Z,3.37
2023-11-24T03:44:01.450Z,2.90
2023-11-24T03:46:49.030Z,3.83
2023-11-24T03:49:36.536Z,3.00
2023-11-24T03:58:23.600Z,3.57
2023-11-24T04:01:00.170Z,3.47
2023-11-24T04:03:34.273Z,3.27
2023-11-24T04:06:09.072Z,2.87
2023-11-24T04:21:34.513Z,3.70
2023-11-24T04:50:32.934Z,1.90
2023-11-24T04:59:40.024Z,1.53
2023-11-24T05:02:11.486Z,1.60
2023-11-24T05:04:47.653Z,1.90
2023-11-24T05:07:21.883Z,1.87
2023-11-24T05:09:50.832Z,2.43
2023-11-24T05:12:23.086Z,2.50
2023-11-24T05:14:58.497Z,1.80
2023-11-24T05:26:12.397Z,1.93
2023-11-24T05:28:40.349Z,2.27
2023-11-24T05:31:21.253Z,2.60
2023-11-24T09:53:34.936Z,2.90
2023-11-24T09:56:04.294Z,2.40
2023-11-24T09:58:32.553Z,2.77
2023-11-24T10:14:23.350Z,2.77
2023-11-24T12:17:47.793Z,2.20
2023-11-24T13:29:55.718Z,2.10
2023-11-24T13:42:13.753Z,2.33
2023-11-24T13:57:53.338Z,1.83
2023-11-24T14:03:46.827Z,2.33
2023-11-24T14:15:58.916Z,2.37
2023-11-24T14:18:57.775Z,1.60
2023-11-24T14:21:46.986Z,2.17
2023-11-24T14:24:25.090Z,2.33
2023-11-24T14:27:08.289Z,2.33
2023-11-24T14:29:44.842Z,2.17
2023-11-24T14:32:17.381Z,2.20
2023-11-24T14:37:47.146Z,2.70
2023-11-24T14:43:46.196Z,2.87
2023-11-24T14:49:40.496Z,2.40
2023-11-24T14:52:13.854Z,2.37
2023-11-24T14:55:07.620Z,2.43
2023-11-24T14:57:42.675Z,2.20
2023-11-24T15:06:07.420Z,1.80
2023-11-24T15:08:40.428Z,1.70
2023-11-24T15:11:53.594Z,2.57
2023-11-24T15:20:26.762Z,2.10
2023-11-24T15:38:54.201Z,2.23
2023-11-24T15:48:15.605Z,1.90
2023-11-24T15:51:32.300Z,2.07
2023-11-24T15:54:37.974Z,1.93
2023-11-24T16:16:54.726Z,2.10
2023-11-24T16:31:41.445Z,2.10
2023-11-24T16:49:43.677Z,2.13
2023-11-24T18:10:20.774Z,3.03
2023-11-24T18:13:01.592Z,2.80
2023-11-24T18:15:36.091Z,3.00
2023-11-24T18:18:06.267Z,3.27
2023-11-24T18:20:47.554Z,3.07
2023-11-24T18:23:32.769Z,2.57
2023-11-24T18:26:01.594Z,2.77
2023-11-24T18:28:40.572Z,3.30
2023-11-24T18:31:14.350Z,2.97
2023-11-24T18:33:44.667Z,3.30
2023-11-24T18:36:20.265Z,4.03
2023-11-24T18:38:51.147Z,3.00
2023-11-24T20:49:09.216Z,1.63
2023-11-24T21:02:28.189Z,3.00
2023-11-24T21:05:01.725Z,2.60
2023-11-24T21:07:31.631Z,2.27
2023-11-24T21:10:36.517Z,1.60
2023-11-24T21:13:21.358Z,2.13
2023-11-24T21:19:29.286Z,2.27
2023-11-24T21:22:14.817Z,2.00
2023-11-24T22:18:13.926Z,3.23
2023-11-24T22:21:16.525Z,3.33
2023-11-24T22:23:44.711Z,2.60
2023-11-24T22:26:33.320Z,2.83
2023-11-24T22:29:04.261Z,2.40
2023-11-24T22:31:33.251Z,2.67
2023-11-24T22:34:01.911Z,3.17
2023-11-24T22:36:30.661Z,2.80
2023-11-24T22:39:00.242Z,2.40
2023-11-24T22:41:30.409Z,2.90
2023-11-24T22:44:01.608Z,2.80
2023-11-24T22:46:53.510Z,2.30
2023-11-24T22:49:25.455Z,2.27
2023-11-24T22:52:03.573Z,2.23
2023-11-24T22:54:36.821Z,1.87
2023-11-24T22:57:17.053Z,2.70
2023-11-24T22:59:47.704Z,2.50
2023-11-24T23:02:17.742Z,2.90
2023-11-24T23:04:53.147Z,2.97
2023-11-24T23:10:25.983Z,2.73
2023-11-24T23:12:58.719Z,3.57
2023-11-24T23:15:50.054Z,5.03
2023-11-24T23:18:27.496Z,3.50
2023-11-24T23:21:02.308Z,4.03
2023-11-24T23:23:31.063Z,5.70
2023-11-24T23:26:15.265Z,4.40
2023-11-24T23:28:49.995Z,3.70
2023-11-24T23:31:29.317Z,3.97
2023-11-24T23:34:17.454Z,5.80
2023-11-24T23:37:01.145Z,4.93
2023-11-24T23:39:30.286Z,2.80
2023-11-24T23:41:58.895Z,4.30
2023-11-24T23:44:28.757Z,3.13
2023-11-24T23:47:04.502Z,3.50
2023-11-24T23:49:33.843Z,3.30
2023-11-24T23:52:02.522Z,3.37
2023-11-24T23:54:31.140Z,4.50
2023-11-24T23:57:09.395Z,4.37
2023-11-24T23:59:41.681Z,4.97
